createdAt,value
2018-12-24T00:02:18.129Z,3.40
2018-12-24T00:04:46.427Z,3.35
2018-12-24T00:07:14.735Z,3.27
2018-12-24T00:09:43.064Z,2.62
2018-12-24T00:12:11.343Z,4.25
2018-12-24T00:14:39.631Z,4.60
2018-12-24T00:17:07.927Z,2.77
2018-12-24T00:19:36.215Z,2.77
2018-12-24T00:22:04.517Z,2.25
2018-12-24T00:24:32.826Z,7.00
2018-12-24T00:27:01.125Z,3.42
2018-12-24T00:29:29.414Z,4.17
2018-12-24T00:31:57.734Z,3.02
2018-12-24T00:34:26.017Z,4.47
2018-12-24T00:36:54.309Z,5.30
2018-12-24T00:39:22.619Z,3.45
2018-12-24T00:41:50.916Z,4.72
2018-12-24T00:44:19.201Z,2.40
2018-12-24T00:46:47.506Z,3.65
2018-12-24T00:49:15.797Z,4.30
2018-12-24T00:51:44.133Z,2.90
2018-12-24T00:54:12.426Z,5.00
2018-12-24T00:56:40.706Z,5.15
2018-12-24T00:59:09.026Z,5.55
2018-12-24T01:01:37.313Z,5.35
2018-12-24T01:04:05.615Z,7.42
2018-12-24T01:06:33.924Z,2.62
2018-12-24T01:09:02.230Z,5.35
2018-12-24T01:11:30.509Z,3.00
2018-12-24T01:13:58.805Z,3.17
2018-12-24T01:16:27.094Z,4.83
2018-12-24T01:18:55.395Z,4.17
2018-12-24T01:21:23.685Z,1.90
2018-12-24T01:23:51.986Z,3.72
2018-12-24T01:26:20.267Z,3.62
2018-12-24T01:28:48.568Z,4.25
2018-12-24T01:31:16.863Z,4.92
2018-12-24T01:33:45.159Z,2.33
2018-12-24T01:36:13.447Z,2.52
2018-12-24T01:38:41.747Z,3.58
2018-12-24T01:41:10.029Z,2.05
2018-12-24T01:43:38.331Z,3.55
2018-12-24T01:46:06.616Z,3.05
2018-12-24T01:48:34.914Z,2.05
2018-12-24T01:51:03.203Z,2.87
2018-12-24T01:53:31.500Z,3.40
2018-12-24T01:55:59.785Z,2.30
2018-12-24T01:58:28.101Z,1.47
2018-12-24T02:00:56.389Z,2.27
2018-12-24T02:03:24.677Z,2.62
2018-12-24T02:05:52.977Z,1.47
2018-12-24T02:08:21.266Z,1.82
2018-12-24T02:10:49.560Z,1.10
2018-12-24T02:13:17.848Z,2.08
2018-12-24T02:15:46.152Z,2.77
2018-12-24T02:18:14.459Z,2.08
2018-12-24T02:20:42.759Z,2.05
2018-12-24T02:23:11.041Z,3.27
2018-12-24T02:25:39.342Z,2.12
2018-12-24T02:28:07.630Z,2.10
2018-12-24T02:30:35.934Z,2.58
2018-12-24T02:33:04.247Z,2.30
2018-12-24T02:35:32.565Z,2.37
2018-12-24T02:38:00.859Z,2.37
2018-12-24T02:40:29.185Z,2.90
2018-12-24T02:42:57.496Z,3.22
2018-12-24T02:45:25.871Z,2.45
2018-12-24T02:47:54.140Z,1.57
2018-12-24T02:50:22.465Z,2.95
2018-12-24T02:52:50.752Z,4.60
2018-12-24T02:55:19.045Z,2.95
2018-12-24T02:57:47.335Z,5.00
2018-12-24T03:00:15.634Z,4.00
2018-12-24T03:02:43.968Z,2.33
2018-12-24T03:05:12.213Z,1.87
2018-12-24T03:07:40.497Z,4.70
2018-12-24T03:10:08.818Z,4.10
2018-12-24T03:12:37.129Z,3.45
2018-12-24T03:15:45.565Z,3.75
2018-12-24T03:18:13.869Z,2.65
2018-12-24T03:20:42.164Z,7.78
2018-12-24T03:23:10.437Z,5.53
2018-12-24T03:25:38.724Z,6.28
2018-12-24T03:28:07.009Z,7.53
2018-12-24T03:30:35.317Z,4.83
2018-12-24T03:33:03.598Z,3.25
2018-12-24T03:35:31.925Z,5.45
2018-12-24T03:38:00.210Z,4.20
2018-12-24T03:40:28.545Z,5.92
2018-12-24T03:42:56.817Z,2.58
2018-12-24T03:45:25.141Z,2.42
2018-12-24T03:47:53.449Z,3.22
2018-12-24T03:50:21.771Z,3.77
2018-12-24T03:52:50.146Z,4.45
2018-12-24T03:55:18.429Z,5.62
2018-12-24T03:57:46.728Z,3.27
2018-12-24T04:00:15.010Z,2.80
2018-12-24T04:02:43.311Z,4.72
2018-12-24T04:05:11.598Z,6.20
2018-12-24T04:07:39.893Z,2.47
2018-12-24T04:10:08.202Z,2.42
2018-12-24T04:12:36.522Z,3.33
2018-12-24T04:15:04.812Z,2.00
2018-12-24T04:17:33.113Z,2.12
2018-12-24T04:20:01.393Z,1.42
2018-12-24T04:22:29.702Z,1.37
2018-12-24T04:24:57.999Z,2.10
2018-12-24T04:27:26.297Z,2.15
2018-12-24T04:29:54.581Z,2.85
2018-12-24T04:32:22.878Z,2.00
2018-12-24T04:34:51.163Z,2.02
2018-12-24T04:37:19.464Z,4.25
2018-12-24T04:39:47.757Z,2.92
2018-12-24T04:42:16.053Z,1.45
2018-12-24T04:44:44.339Z,3.45
2018-12-24T04:47:12.637Z,2.25
2018-12-24T04:49:40.933Z,5.72
2018-12-24T04:52:09.246Z,5.70
2018-12-24T04:54:37.535Z,3.42
2018-12-24T04:57:05.834Z,2.40
2018-12-24T04:59:34.125Z,3.05
2018-12-24T05:02:02.422Z,3.22
2018-12-24T05:04:30.714Z,2.85
2018-12-24T05:06:59.040Z,3.40
2018-12-24T05:09:27.330Z,4.90
2018-12-24T05:11:55.631Z,2.98
2018-12-24T05:14:23.921Z,2.40
2018-12-24T05:16:52.211Z,2.05
2018-12-24T05:19:20.529Z,5.10
2018-12-24T05:21:48.838Z,3.52
2018-12-24T05:24:17.143Z,1.90
2018-12-24T05:26:45.450Z,3.75
2018-12-24T05:29:13.745Z,3.62
2018-12-24T05:31:42.063Z,4.42
2018-12-24T05:34:10.359Z,1.32
2018-12-24T05:36:38.643Z,4.35
2018-12-24T05:39:06.944Z,3.08
2018-12-24T05:41:35.228Z,3.83
2018-12-24T05:44:03.529Z,3.05
2018-12-24T05:46:31.822Z,2.50
2018-12-24T05:49:00.199Z,3.17
2018-12-24T05:51:28.488Z,2.67
2018-12-24T05:53:56.790Z,2.15
2018-12-24T05:56:25.078Z,3.37
2018-12-24T05:58:53.382Z,2.33
2018-12-24T06:01:21.696Z,3.20
2018-12-24T06:03:49.998Z,2.50
2018-12-24T06:06:18.286Z,2.00
2018-12-24T06:08:46.570Z,2.33
2018-12-24T06:11:14.887Z,2.65
2018-12-24T06:13:43.198Z,3.02
2018-12-24T06:16:11.532Z,3.33
2018-12-24T06:18:39.836Z,3.83
2018-12-24T06:21:08.132Z,1.98
2018-12-24T06:23:36.446Z,1.82
2018-12-24T06:26:04.760Z,2.33
2018-12-24T06:28:33.052Z,2.47
2018-12-24T06:31:01.433Z,4.03
2018-12-24T06:33:29.743Z,3.08
2018-12-24T06:35:58.038Z,2.22
2018-12-24T06:38:26.322Z,1.82
2018-12-24T06:40:54.624Z,2.72
2018-12-24T06:43:22.910Z,3.02
2018-12-24T06:45:51.215Z,4.12
2018-12-24T06:48:19.521Z,4.10
2018-12-24T06:50:47.841Z,4.03
2018-12-24T06:53:16.147Z,2.77
2018-12-24T06:55:44.451Z,2.60
2018-12-24T06:58:12.760Z,1.67
2018-12-24T07:00:41.085Z,1.27
2018-12-24T07:03:09.375Z,1.90
2018-12-24T07:05:37.678Z,3.27
2018-12-24T07:08:05.971Z,2.22
2018-12-24T07:10:34.296Z,1.90
2018-12-24T07:13:02.578Z,2.58
2018-12-24T07:15:30.903Z,1.85
2018-12-24T07:17:59.185Z,1.95
2018-12-24T07:20:27.472Z,3.42
2018-12-24T07:22:55.772Z,3.20
2018-12-24T07:25:24.082Z,2.87
2018-12-24T07:27:52.384Z,2.72
2018-12-24T07:30:20.696Z,3.15
2018-12-24T07:32:48.998Z,2.62
2018-12-24T07:35:17.283Z,3.35
2018-12-24T07:37:45.578Z,1.55
2018-12-24T07:40:13.861Z,1.60
2018-12-24T07:42:42.159Z,3.25
2018-12-24T07:45:10.445Z,2.00
2018-12-24T07:47:38.743Z,2.45
2018-12-24T07:50:07.055Z,1.22
2018-12-24T07:52:35.362Z,3.10
2018-12-24T07:55:03.650Z,3.60
2018-12-24T07:57:31.944Z,3.12
2018-12-24T08:00:00.232Z,1.75
2018-12-24T08:02:28.558Z,2.83
2018-12-24T08:04:56.857Z,2.72
2018-12-24T08:07:25.141Z,3.27
2018-12-24T08:09:53.439Z,5.37
2018-12-24T08:12:21.730Z,4.55
2018-12-24T08:14:50.018Z,3.45
2018-12-24T08:17:18.307Z,4.05
2018-12-24T08:19:46.626Z,2.20
2018-12-24T08:22:14.935Z,1.90
2018-12-24T08:24:43.256Z,2.50
2018-12-24T08:27:11.536Z,3.20
2018-12-24T08:29:39.841Z,2.55
2018-12-24T08:32:08.126Z,2.45
2018-12-24T08:34:36.425Z,3.33
2018-12-24T08:37:04.716Z,3.45
2018-12-24T08:39:33.037Z,4.97
2018-12-24T08:42:01.320Z,1.87
2018-12-24T08:44:29.622Z,3.30
2018-12-24T08:46:57.944Z,1.95
2018-12-24T08:49:26.247Z,3.47
2018-12-24T08:51:54.554Z,3.55
2018-12-24T08:54:22.852Z,2.62
2018-12-24T08:56:51.137Z,2.67
2018-12-24T08:59:19.433Z,2.75
2018-12-24T09:01:47.742Z,6.72
2018-12-24T09:04:16.046Z,3.00
2018-12-24T09:06:44.346Z,3.72
2018-12-24T09:09:12.634Z,3.70
2018-12-24T09:11:40.952Z,3.05
2018-12-24T09:14:09.240Z,4.53
2018-12-24T09:16:37.557Z,3.33
2018-12-24T09:19:05.868Z,4.60
2018-12-24T09:21:34.172Z,2.52
2018-12-24T09:24:02.458Z,4.95
2018-12-24T09:26:30.755Z,3.67
2018-12-24T09:28:59.134Z,5.72
2018-12-24T09:31:27.442Z,5.83
2018-12-24T09:33:55.741Z,5.83
2018-12-24T09:36:24.049Z,4.05
2018-12-24T09:38:52.331Z,4.35
2018-12-24T09:41:20.631Z,5.40
2018-12-24T09:43:48.914Z,3.95
2018-12-24T09:46:17.215Z,4.97
2018-12-24T09:48:45.522Z,4.78
2018-12-24T09:51:13.833Z,3.05
2018-12-24T09:53:42.143Z,3.92
2018-12-24T09:56:12.443Z,2.67
2018-12-24T09:58:40.463Z,5.92
2018-12-24T10:01:08.755Z,4.60
2018-12-24T10:06:32.110Z,7.90
2018-12-24T10:09:00.397Z,4.50
2018-12-24T10:11:28.734Z,4.80
2018-12-24T10:13:57.021Z,4.65
2018-12-24T10:16:25.307Z,7.67
2018-12-24T10:18:53.607Z,3.45
2018-12-24T10:21:21.896Z,5.05
2018-12-24T10:23:50.193Z,4.37
2018-12-24T10:26:18.482Z,5.75
2018-12-24T10:28:46.776Z,4.75
2018-12-24T10:31:15.073Z,3.15
2018-12-24T10:33:43.448Z,6.08
2018-12-24T10:36:11.740Z,6.42
2018-12-24T10:38:40.033Z,5.55
2018-12-24T10:41:08.318Z,3.77
2018-12-24T10:43:36.618Z,3.75
2018-12-24T10:46:04.910Z,3.25
2018-12-24T10:48:33.204Z,4.15
2018-12-24T10:51:01.493Z,3.77
2018-12-24T10:53:29.797Z,4.75
2018-12-24T10:55:58.105Z,2.98
2018-12-24T10:58:26.404Z,3.45
2018-12-24T11:00:54.713Z,5.85
2018-12-24T11:05:57.138Z,4.30
2018-12-24T11:08:25.448Z,2.87
2018-12-24T11:10:53.738Z,4.58
2018-12-24T11:13:22.026Z,3.65
2018-12-24T11:15:50.329Z,3.08
2018-12-24T11:18:18.620Z,2.58
2018-12-24T11:20:46.947Z,4.97
2018-12-24T11:23:15.232Z,4.70
2018-12-24T11:25:43.531Z,4.03
2018-12-24T11:28:11.821Z,4.50
2018-12-24T11:30:47.454Z,3.50
2018-12-24T11:33:15.742Z,4.85
2018-12-24T11:35:44.057Z,3.08
2018-12-24T11:38:12.350Z,2.02
2018-12-24T11:40:40.644Z,4.35
2018-12-24T11:43:08.933Z,5.03
2018-12-24T11:45:37.233Z,3.42
2018-12-24T11:48:05.516Z,3.15
2018-12-24T11:50:33.812Z,5.25
2018-12-24T11:53:02.102Z,3.02
2018-12-24T11:55:30.404Z,3.85
2018-12-24T11:57:58.693Z,1.82
2018-12-24T12:00:27.010Z,3.52
2018-12-24T12:02:55.293Z,5.12
2018-12-24T12:05:23.612Z,3.00
2018-12-24T12:07:51.897Z,3.30
2018-12-24T12:10:20.211Z,3.35
2018-12-24T12:12:48.522Z,4.75
2018-12-24T12:15:16.819Z,2.15
2018-12-24T12:17:45.110Z,3.12
2018-12-24T12:20:13.414Z,2.67
2018-12-24T12:22:41.738Z,3.55
2018-12-24T12:25:10.025Z,5.05
2018-12-24T12:27:38.316Z,0.90
2018-12-24T12:33:07.882Z,2.08
2018-12-24T12:35:36.177Z,4.95
2018-12-24T12:38:04.489Z,3.98
2018-12-24T12:40:32.780Z,2.75
2018-12-24T12:43:01.098Z,2.45
2018-12-24T12:45:29.403Z,2.83
2018-12-24T12:47:57.703Z,2.30
2018-12-24T12:50:25.988Z,2.45
2018-12-24T12:52:54.310Z,3.55
2018-12-24T12:55:22.604Z,3.50
2018-12-24T12:57:50.897Z,2.00
2018-12-24T13:00:19.187Z,3.10
2018-12-24T13:02:47.487Z,1.52
2018-12-24T13:05:15.769Z,2.17
2018-12-24T13:07:44.091Z,3.15
2018-12-24T13:10:12.400Z,2.30
2018-12-24T13:12:40.693Z,4.15
2018-12-24T13:15:08.992Z,3.27
2018-12-24T13:17:37.313Z,2.25
2018-12-24T13:20:05.689Z,6.15
2018-12-24T13:22:33.969Z,3.60
2018-12-24T13:25:02.298Z,2.00
2018-12-24T13:27:30.585Z,3.67
2018-12-24T13:29:58.883Z,3.20
2018-12-24T13:32:27.200Z,4.58
2018-12-24T13:34:55.499Z,2.72
2018-12-24T13:37:23.809Z,2.87
2018-12-24T13:39:52.200Z,2.62
2018-12-24T13:42:20.464Z,2.37
2018-12-24T13:44:48.757Z,5.40
2018-12-24T13:47:17.047Z,4.62
2018-12-24T13:49:45.354Z,3.72
2018-12-24T13:52:13.643Z,5.53
2018-12-24T13:54:41.946Z,2.15
2018-12-24T13:57:10.235Z,5.03
2018-12-24T13:59:38.559Z,1.87
2018-12-24T14:02:06.847Z,1.65
2018-12-24T14:04:35.146Z,2.55
2018-12-24T14:07:03.440Z,2.85
2018-12-24T14:09:31.761Z,2.92
2018-12-24T14:12:00.042Z,2.92
2018-12-24T14:14:28.362Z,3.15
2018-12-24T14:16:56.693Z,7.22
2018-12-24T14:19:24.981Z,3.60
2018-12-24T14:21:53.392Z,2.95
2018-12-24T14:24:21.640Z,2.47
2018-12-24T14:26:49.942Z,2.02
2018-12-24T14:29:18.234Z,2.08
2018-12-24T14:31:46.534Z,2.70
2018-12-24T14:37:28.362Z,3.75
2018-12-24T14:39:56.680Z,4.55
2018-12-24T14:42:24.967Z,2.98
2018-12-24T14:44:53.324Z,5.03
2018-12-24T14:47:21.639Z,2.65
2018-12-24T14:49:49.928Z,5.05
2018-12-24T14:52:18.231Z,4.20
2018-12-24T14:54:46.519Z,3.55
2018-12-24T14:57:14.838Z,2.60
2018-12-24T14:59:43.126Z,4.22
2018-12-24T15:02:11.428Z,1.98
2018-12-24T15:04:39.713Z,2.37
2018-12-24T15:07:08.016Z,2.37
2018-12-24T15:09:36.307Z,3.75
2018-12-24T15:12:04.630Z,4.20
2018-12-24T15:14:32.923Z,2.90
2018-12-24T15:17:01.227Z,4.50
2018-12-24T15:22:43.574Z,1.30
2018-12-24T15:25:11.871Z,4.80
2018-12-24T15:27:40.174Z,1.98
2018-12-24T15:30:08.463Z,2.47
2018-12-24T15:32:36.766Z,3.33
2018-12-24T15:35:05.055Z,3.42
2018-12-24T15:37:33.354Z,3.67
2018-12-24T15:40:01.638Z,2.83
2018-12-24T15:42:32.036Z,2.62
2018-12-24T15:44:59.975Z,3.80
2018-12-24T15:47:28.271Z,2.65
2018-12-24T15:49:56.556Z,5.70
2018-12-24T15:52:24.856Z,2.83
2018-12-24T15:54:53.142Z,3.55
2018-12-24T15:57:21.443Z,3.22
2018-12-24T15:59:49.727Z,2.55
2018-12-24T16:02:18.022Z,4.12
2018-12-24T16:04:46.308Z,4.65
2018-12-24T16:07:14.608Z,6.00
2018-12-24T16:09:42.893Z,6.65
2018-12-24T16:12:11.178Z,4.78
2018-12-24T16:14:39.480Z,4.85
2018-12-24T16:17:07.775Z,3.08
2018-12-24T16:19:36.095Z,4.40
2018-12-24T16:22:04.379Z,3.65
2018-12-24T16:24:32.677Z,4.40
2018-12-24T16:27:00.968Z,4.30
2018-12-24T16:29:29.263Z,4.87
2018-12-24T16:31:57.554Z,6.00
2018-12-24T16:34:25.849Z,6.47
2018-12-24T16:36:54.139Z,6.05
2018-12-24T16:39:22.454Z,53.68
2018-12-24T16:41:50.748Z,50.17
2018-12-24T16:44:19.059Z,43.38
2018-12-24T16:46:47.364Z,26.68
2018-12-24T16:49:15.681Z,25.57
2018-12-24T16:51:43.993Z,21.02
2018-12-24T16:54:12.306Z,17.52
2018-12-24T16:57:00.025Z,7.22
2018-12-24T16:59:28.350Z,6.92
2018-12-24T17:01:56.666Z,4.92
2018-12-24T17:04:24.975Z,4.87
2018-12-24T17:06:53.274Z,3.52
2018-12-24T17:09:21.594Z,5.25
2018-12-24T17:11:49.898Z,2.75
2018-12-24T17:14:18.197Z,5.85
2018-12-24T17:16:46.484Z,5.28
2018-12-24T17:19:14.802Z,5.97
2018-12-24T17:21:43.111Z,3.12
2018-12-24T17:24:11.414Z,4.12
2018-12-24T17:26:39.699Z,5.95
2018-12-24T17:29:07.999Z,2.30
2018-12-24T17:31:36.290Z,3.20
2018-12-24T17:34:04.605Z,3.35
2018-12-24T17:36:32.915Z,4.28
2018-12-24T17:39:01.197Z,3.37
2018-12-24T17:41:29.493Z,3.12
2018-12-24T17:43:57.786Z,2.75
2018-12-24T17:46:45.533Z,4.15
2018-12-24T17:49:13.842Z,2.33
2018-12-24T17:51:42.163Z,2.70
2018-12-24T17:54:10.441Z,1.85
2018-12-24T17:56:38.736Z,4.30
2018-12-24T17:59:07.044Z,3.12
2018-12-24T18:01:35.362Z,2.90
2018-12-24T18:04:03.651Z,2.00
2018-12-24T18:06:31.950Z,4.62
2018-12-24T18:09:00.233Z,5.08
2018-12-24T18:11:28.538Z,3.08
2018-12-24T18:13:56.827Z,5.00
2018-12-24T18:16:25.128Z,6.17
2018-12-24T18:18:53.435Z,3.85
2018-12-24T18:21:21.733Z,4.00
2018-12-24T18:23:50.028Z,8.73
2018-12-24T18:26:18.324Z,15.78
2018-12-24T18:28:46.641Z,13.45
2018-12-24T18:31:19.964Z,219.82
2018-12-24T18:33:45.025Z,146.35
2018-12-24T18:36:13.343Z,69.65
2018-12-24T18:38:41.668Z,38.40
2018-12-24T18:41:09.956Z,28.77
2018-12-24T18:43:38.269Z,22.65
2018-12-24T18:46:06.593Z,15.70
2018-12-24T18:48:34.955Z,11.57
2018-12-24T18:51:03.254Z,11.50
2018-12-24T18:53:31.566Z,11.65
2018-12-24T18:55:59.873Z,10.75
2018-12-24T18:58:28.180Z,9.25
2018-12-24T19:00:56.484Z,10.72
2018-12-24T19:03:24.791Z,8.58
2018-12-24T19:05:53.109Z,11.00
2018-12-24T19:08:21.417Z,6.35
2018-12-24T19:10:49.734Z,8.45
2018-12-24T19:13:18.059Z,50.50
2018-12-24T19:15:46.365Z,289.50
2018-12-24T19:18:14.687Z,999.23
2018-12-24T19:20:43.018Z,603.20
2018-12-24T19:23:11.341Z,368.90
2018-12-24T19:25:39.650Z,265.07
2018-12-24T19:28:07.991Z,213.77
2018-12-24T19:30:36.321Z,197.90
2018-12-24T19:33:04.645Z,156.40
2018-12-24T19:35:32.955Z,140.82
2018-12-24T19:38:01.283Z,123.25
2018-12-24T19:40:29.594Z,108.05
2018-12-24T19:42:57.899Z,103.50
2018-12-24T19:45:26.239Z,97.90
2018-12-24T19:47:54.532Z,82.57
2018-12-24T19:50:22.853Z,68.60
2018-12-24T19:52:51.254Z,59.23
2018-12-24T19:55:19.564Z,47.17
2018-12-24T19:57:47.856Z,43.52
2018-12-24T20:00:16.165Z,39.27
2018-12-24T20:02:44.464Z,32.05
2018-12-24T20:05:12.786Z,27.48
2018-12-24T20:07:41.105Z,26.00
2018-12-24T20:10:09.422Z,21.68
2018-12-24T20:12:37.750Z,20.55
2018-12-24T20:15:46.196Z,16.52
2018-12-24T20:18:14.515Z,18.52
2018-12-24T20:20:42.826Z,16.52
2018-12-24T20:23:11.154Z,11.35
2018-12-24T20:25:39.460Z,9.68
2018-12-24T20:28:07.754Z,9.60
2018-12-24T20:30:36.058Z,9.40
2018-12-24T20:33:04.352Z,6.08
2018-12-24T20:35:32.679Z,4.05
2018-12-24T20:38:00.975Z,5.12
2018-12-24T20:40:29.281Z,6.55
2018-12-24T20:42:57.593Z,3.47
2018-12-24T20:45:25.885Z,5.28
2018-12-24T20:47:54.187Z,2.27
2018-12-24T20:50:22.480Z,3.60
2018-12-24T20:52:50.777Z,5.53
2018-12-24T20:55:19.059Z,5.30
2018-12-24T20:57:47.366Z,2.25
2018-12-24T21:00:15.657Z,3.55
2018-12-24T21:02:43.986Z,2.58
2018-12-24T21:05:12.249Z,4.33
2018-12-24T21:07:40.540Z,2.02
2018-12-24T21:10:08.847Z,2.12
2018-12-24T21:12:37.147Z,4.50
2018-12-24T21:18:19.786Z,2.08
2018-12-24T21:20:48.078Z,1.50
2018-12-24T21:23:16.376Z,2.35
2018-12-24T21:25:44.669Z,1.98
2018-12-24T21:28:12.971Z,1.67
2018-12-24T21:30:41.414Z,1.85
2018-12-24T21:33:09.715Z,2.65
2018-12-24T21:35:37.995Z,1.75
2018-12-24T21:38:06.298Z,2.58
2018-12-24T21:40:34.590Z,3.92
2018-12-24T21:43:02.935Z,3.58
2018-12-24T21:45:31.249Z,0.95
2018-12-24T21:47:59.569Z,3.20
2018-12-24T21:50:27.857Z,2.10
2018-12-24T21:52:56.156Z,1.85
2018-12-24T21:55:24.444Z,1.90
2018-12-24T21:57:52.813Z,1.60
2018-12-24T22:00:21.096Z,3.75
2018-12-24T22:02:49.404Z,1.00
2018-12-24T22:05:17.727Z,3.33
2018-12-24T22:07:46.018Z,1.10
2018-12-24T22:10:14.343Z,1.05
2018-12-24T22:12:42.630Z,2.65
2018-12-24T22:15:11.039Z,2.42
2018-12-24T22:17:39.295Z,2.98
2018-12-24T22:20:07.592Z,1.67
2018-12-24T22:22:35.881Z,1.85
2018-12-24T22:25:04.198Z,1.85
2018-12-24T22:27:32.482Z,1.22
2018-12-24T22:30:00.784Z,1.82
2018-12-24T22:32:29.087Z,2.25
2018-12-24T22:34:57.386Z,1.00
2018-12-24T22:37:25.672Z,1.70
2018-12-24T22:39:53.964Z,0.93
2018-12-24T22:42:41.688Z,1.85
2018-12-24T22:45:09.987Z,1.75
2018-12-24T22:47:38.276Z,0.90
2018-12-24T22:50:06.581Z,1.07
2018-12-24T22:52:34.866Z,1.50
2018-12-24T22:55:03.164Z,1.40
2018-12-24T22:57:31.448Z,1.00
2018-12-24T22:59:59.766Z,1.10
2018-12-24T23:02:28.058Z,1.65
2018-12-24T23:04:56.369Z,1.75
2018-12-24T23:07:24.660Z,1.32
2018-12-24T23:09:52.971Z,1.35
2018-12-24T23:12:21.266Z,1.52
2018-12-24T23:14:49.548Z,1.25
2018-12-24T23:17:17.846Z,3.15
2018-12-24T23:19:46.130Z,1.85
2018-12-24T23:22:14.451Z,1.55
2018-12-24T23:24:42.760Z,1.45
2018-12-24T23:27:11.080Z,1.65
2018-12-24T23:29:39.364Z,1.12
2018-12-24T23:32:07.672Z,0.93
2018-12-24T23:34:35.961Z,2.67
2018-12-24T23:37:04.254Z,1.45
2018-12-24T23:39:32.539Z,2.25
2018-12-24T23:42:00.862Z,0.80
2018-12-24T23:44:29.145Z,1.65
2018-12-24T23:46:57.466Z,1.00
2018-12-24T23:49:25.756Z,1.47
2018-12-24T23:51:54.056Z,1.70
2018-12-24T23:54:22.338Z,1.00
2018-12-24T23:56:50.702Z,1.55
2018-12-24T23:59:18.983Z,1.40
